메인 페이지
METAR-TAF:

METAR-TAF

공항 :

에번즈빌, 인디애나, 미국

위도: 38-02-35N, 경도: 087-31-13W, 고도: 127m

현재 날씨관측

예보는 10분 전, 13:54시(UTC)에 발표되었습니다.
남서9kt
온도 24°C
습도 78%
기압 1011 hPa
시정: 16.1km
고도 1300ft 상공 구름 조금

METAR: KEVV 251354Z 23009KT 10SM FEW013 24/20 A2985 RMK AO2 SLP103 T02390200 $

시각: 09:04 (14:04 UTC)

예보

예보는 2 시간 32분 전, 11:32시(UTC)에 발표되었습니다.
예보 대상 시간: 25일 12시부터 26일 12시까지 (UTC)
3kt
시정: 10km
고도 2500ft 상공 구름 보통
일시적
25일 12시부터 25일 14시까지 (UTC)
고도 2500ft 상공 구름 많음
25일 1400시부터 (UTC)
여러 방향의 바람 4kt
시정: 10km
고도 2500ft 상공 구름 많음
25일 1700시부터 (UTC)
북북서5kt
시정: 10km
고도 3500ft 상공 구름 많음
25일 2200시부터 (UTC)
여러 방향의 바람 4kt
시정: 10km
고도 4500ft 상공 구름 보통

TAF: KEVV 251132Z 2512/2612 18003KT P6SM SCT025 TEMPO 2512/2514 BKN025 FM251400 VRB04KT P6SM BKN025 FM251700 34005KT P6SM BKN035 FM252200 VRB04KT P6SM SCT045

4,000개 이상의 공항 관측 자료 및 예보 (METAR 및 TAF 보고).

지도상에서 검색 가능한 기상관측소가 노란 점과 빨간 점으로 표시되어 있습니다.

기상관측소 명을 보려면 표시 위로 마우스를 이동하세요.

날씨 관측과 예보를 보려면 클릭하세요.

지도 변경 : 확대하려면 엑스 표시가 있는 녹색 버튼, 축소하려면 빼기 표시가 있는 녹색 버튼, 다음 페이지의 지도를 보려면 녹색 화살표를 클릭하세요.


METAR-TAF: